Time;durP1;ratioP1;P1;durP2;ratioP2;P2;SDS_P1;SDS_P2;PMS_P1;PMS_P2;Temp;Humidity;BMP_temperature;BMP_pressure;BME280_temperature;BME280_humidity;BME280_pressure;Samples;Min_cycle;Max_cycle;Signal;HPM_P1;HPM_P2
2022/03/17 00:01:37;;;;;;;153.18;88.80;;;;;;;3.85;68.59;101620.11;2029094;86;30443;-61
2022/03/17 00:04:40;;;;;;;157.80;91.63;;;;;;;3.88;68.82;101626.74;2027416;87;27656;-64
2022/03/17 00:07:43;;;;;;;147.00;84.25;;;;;;;3.90;68.62;101626.30;2027377;87;29866;-61
2022/03/17 00:10:45;;;;;;;151.25;90.03;;;;;;;3.91;68.47;101626.29;2053423;86;31079;-66
2022/03/17 00:13:48;;;;;;;156.15;89.52;;;;;;;3.92;68.44;101628.52;2064263;86;34328;-66
2022/03/17 00:16:49;;;;;;;157.90;89.32;;;;;;;3.90;68.32;101630.28;2064332;86;30604;-61
2022/03/17 00:19:51;;;;;;;150.90;91.20;;;;;;;3.89;68.36;101628.05;2062451;85;28300;-63
2022/03/17 00:22:54;;;;;;;156.93;90.25;;;;;;;3.88;68.37;101630.72;2029877;85;29509;-60
2022/03/17 00:25:56;;;;;;;163.50;92.25;;;;;;;3.86;68.29;101625.43;2048534;86;32325;-62
2022/03/17 00:28:58;;;;;;;158.75;90.72;;;;;;;3.85;68.19;101622.77;2063684;85;34236;-60
2022/03/17 00:32:00;;;;;;;153.32;89.30;;;;;;;3.83;68.22;101623.20;2064611;85;29956;-67
2022/03/17 00:38:23;;;;;;;153.70;86.97;;;;;;;3.77;68.22;101621.02;2064451;85;29158;-72
2022/03/17 00:41:25;;;;;;;146.22;85.50;;;;;;;3.77;68.46;101615.72;2062809;85;32013;-60
2022/03/17 00:44:27;;;;;;;142.07;86.75;;;;;;;3.76;68.46;101619.25;2064304;85;33660;-75
2022/03/17 00:47:29;;;;;;;144.60;86.90;;;;;;;3.76;68.39;101609.97;2064363;85;30547;-65
2022/03/17 00:50:32;;;;;;;137.18;85.32;;;;;;;3.77;68.35;101625.41;2062538;85;27759;-71
2022/03/17 00:53:34;;;;;;;143.13;84.37;;;;;;;3.78;68.66;101625.86;2064811;86;29068;-60
2022/03/17 00:56:36;;;;;;;152.78;85.95;;;;;;;3.79;68.44;101629.85;2064290;85;31901;-73
2022/03/17 00:59:40;;;;;;;152.82;87.67;;;;;;;3.82;68.32;101634.26;2064252;86;34147;-72
2022/03/17 01:02:43;;;;;;;148.45;87.02;;;;;;;3.81;68.28;101636.47;2062443;86;29338;-69
2022/03/17 01:05:45;;;;;;;147.85;86.75;;;;;;;3.80;68.30;101634.27;2064336;86;27733;-73
2022/03/17 01:08:47;;;;;;;150.12;87.47;;;;;;;3.80;68.17;101639.58;2064489;85;28652;-66
2022/03/17 01:11:49;;;;;;;146.55;86.00;;;;;;;3.78;68.10;101640.02;2064282;85;32268;-68
2022/03/17 01:14:52;;;;;;;145.68;85.90;;;;;;;3.77;68.16;101645.30;2064686;85;33318;-74
2022/03/17 01:17:54;;;;;;;142.65;83.50;;;;;;;3.74;68.11;101647.52;2062980;86;29768;-68
2022/03/17 01:20:57;;;;;;;144.22;85.55;;;;;;;3.72;68.14;101646.63;2073709;84;27699;-74
2022/03/17 01:23:59;;;;;;;150.65;84.70;;;;;;;3.69;68.04;101645.29;2102831;84;29199;-71
2022/03/17 01:27:02;;;;;;;139.97;84.05;;;;;;;3.67;68.24;101644.41;2066670;84;30859;-70
2022/03/17 01:30:09;;;;;;;140.70;86.63;;;;;;;3.64;68.07;101641.77;2063497;86;33900;-71
2022/03/17 01:33:11;;;;;;;150.30;87.35;;;;;;;3.62;68.17;101638.23;2058731;86;29382;-70
2022/03/17 01:36:13;;;;;;;145.60;86.65;;;;;;;3.59;68.08;101640.88;2067614;85;27699;-73
2022/03/17 01:39:15;;;;;;;142.75;83.82;;;;;;;3.55;68.07;101643.98;2044093;87;29876;-70
2022/03/17 01:42:18;;;;;;;143.95;83.30;;;;;;;3.51;68.02;101644.84;2069983;85;31185;-73
2022/03/17 01:45:20;;;;;;;141.97;83.97;;;;;;;3.45;67.84;101635.55;2080636;85;34240;-64
2022/03/17 01:48:22;;;;;;;151.07;86.10;;;;;;;3.39;67.83;101626.29;2080761;85;30293;-68
2022/03/17 01:51:25;;;;;;;145.22;87.50;;;;;;;3.31;68.05;101619.66;2052080;85;28234;-73
2022/03/17 01:54:28;;;;;;;149.12;86.67;;;;;;;3.25;68.29;101601.09;2027730;87;29926;-75
2022/03/17 01:57:30;;;;;;;158.07;89.03;;;;;;;3.22;68.58;101592.72;2007173;88;31910;-74
2022/03/17 02:00:32;;;;;;;147.20;84.45;;;;;;;3.19;68.83;101580.33;2057345;86;34345;-72
2022/03/17 02:03:35;;;;;;;150.97;89.90;;;;;;;3.17;69.07;101573.27;2043769;87;28714;-70
2022/03/17 02:06:38;;;;;;;141.37;83.33;;;;;;;3.17;68.84;101566.66;2028692;87;27619;-72
2022/03/17 02:09:41;;;;;;;154.87;87.92;;;;;;;3.17;68.83;101566.20;2029096;86;29441;-68
2022/03/17 02:16:07;;;;;;;150.72;85.62;;;;;;;3.21;68.85;101556.52;2027766;87;34259;-64
2022/03/17 02:19:12;;;;;;;150.20;86.42;;;;;;;3.20;68.75;101564.02;2028014;87;30289;-74
2022/03/17 02:22:19;;;;;;;149.20;86.57;;;;;;;3.22;68.59;101591.39;2028233;87;27644;-63
2022/03/17 02:25:33;;;;;;;148.25;87.10;;;;;;;3.21;68.45;101601.53;2028227;87;28721;-73
2022/03/17 02:28:36;;;;;;;142.68;82.85;;;;;;;3.20;68.36;101606.39;2028038;87;31525;-73
2022/03/17 02:31:38;;;;;;;140.92;82.80;;;;;;;3.16;68.22;101609.91;2009630;86;33801;-63
2022/03/17 02:34:41;;;;;;;148.10;83.42;;;;;;;3.13;68.14;101604.59;2058067;86;29647;-72
2022/03/17 02:37:43;;;;;;;148.70;86.53;;;;;;;3.07;68.04;101612.08;2037640;87;27700;-72
2022/03/17 02:40:50;;;;;;;139.47;82.95;;;;;;;2.99;67.96;101618.68;2040544;86;29966;-65
2022/03/17 02:43:56;;;;;;;143.07;82.82;;;;;;;2.92;67.94;101624.82;2071051;86;31064;-74
2022/03/17 02:46:58;;;;;;;136.18;79.75;;;;;;;2.83;67.79;101634.94;2071063;86;34143;-69
2022/03/17 02:50:01;;;;;;;136.65;81.32;;;;;;;2.74;67.84;101642.84;2069883;85;29504;-64
2022/03/17 02:53:09;;;;;;;143.43;84.03;;;;;;;2.63;67.82;101635.31;2071071;85;27743;-73
2022/03/17 02:56:11;;;;;;;147.75;84.47;;;;;;;2.52;67.94;101639.22;2068709;85;29054;-72
2022/03/17 02:59:13;;;;;;;151.00;83.52;;;;;;;2.41;67.96;101637.83;2070691;86;31091;-73
2022/03/17 03:02:16;;;;;;;148.00;82.45;;;;;;;2.30;67.93;101645.69;2070521;85;33798;-73
2022/03/17 03:05:19;;;;;;;139.75;80.60;;;;;;;2.21;68.02;101656.22;2071065;85;30116;-73
2022/03/17 03:08:21;;;;;;;141.07;81.63;;;;;;;2.10;67.99;101654.36;2071142;85;27693;-74
2022/03/17 03:11:23;;;;;;;140.70;82.53;;;;;;;2.03;68.02;101666.20;2071068;86;29544;-75
2022/03/17 03:14:26;;;;;;;149.40;84.37;;;;;;;1.92;68.05;101663.05;2071063;85;32116;-64
2022/03/17 03:17:28;;;;;;;141.92;84.67;;;;;;;1.82;68.06;101659.89;2070686;85;32438;-73
2022/03/17 03:20:30;;;;;;;146.95;86.20;;;;;;;1.72;68.44;101665.94;2069015;86;30638;-70
2022/03/17 03:23:33;;;;;;;146.02;85.07;;;;;;;1.59;68.54;101668.48;2071194;86;27707;-66
2022/03/17 03:26:35;;;;;;;147.35;87.02;;;;;;;1.53;68.62;101661.80;2070815;85;29604;-72
2022/03/17 03:29:38;;;;;;;158.12;91.28;;;;;;;1.49;69.00;101658.25;2070616;85;32262;-59
2022/03/17 03:32:47;;;;;;;166.88;91.22;;;;;;;1.46;69.23;101663.50;2070569;85;32918;-60
2022/03/17 03:39:09;;;;;;;160.28;89.58;;;;;;;1.46;69.79;101657.35;2079501;85;27865;-70
2022/03/17 03:42:12;;;;;;;160.95;91.32;;;;;;;1.48;69.88;101656.94;2080391;85;30103;-60
2022/03/17 03:45:15;;;;;;;168.82;94.22;;;;;;;1.49;70.14;101654.30;2078303;85;31083;-69
2022/03/17 03:48:17;;;;;;;167.10;92.30;;;;;;;1.54;70.63;101658.75;2080224;85;33819;-72
2022/03/17 03:51:19;;;;;;;161.45;90.05;;;;;;;1.60;70.70;101659.69;2080348;85;30259;-70
2022/03/17 03:54:21;;;;;;;159.70;92.42;;;;;;;1.66;71.01;101661.05;2080449;85;27715;-69
2022/03/17 03:57:24;;;;;;;157.20;91.00;;;;;;;1.71;70.60;101658.47;2080447;85;30062;-66
2022/03/17 04:03:30;;;;;;;167.15;94.97;;;;;;;1.81;70.88;101664.72;2080571;85;34121;-71
2022/03/17 04:06:44;;;;;;;169.40;93.92;;;;;;;1.86;70.83;101668.72;2080311;85;30565;-73
2022/03/17 04:09:45;;;;;;;157.85;90.45;;;;;;;1.87;70.75;101676.64;2077831;85;27704;-70
2022/03/17 04:12:47;;;;;;;160.72;87.47;;;;;;;1.91;70.64;101682.84;2079988;85;30034;-70
2022/03/17 04:15:49;;;;;;;151.65;89.13;;;;;;;1.91;70.61;101689.02;2079975;85;32262;-71
2022/03/17 04:18:51;;;;;;;155.25;89.80;;;;;;;1.93;70.58;101687.70;2080145;85;34428;-71
2022/03/17 04:21:53;;;;;;;164.40;90.57;;;;;;;1.93;70.59;101690.34;2080542;85;30602;-72
2022/03/17 04:24:55;;;;;;;146.72;88.80;;;;;;;1.93;70.74;101698.27;2080290;85;27702;-73
2022/03/17 04:27:57;;;;;;;156.97;87.22;;;;;;;1.92;70.80;101700.46;2080486;85;28670;-74
2022/03/17 04:30:59;;;;;;;160.07;89.37;;;;;;;1.92;70.61;101695.17;2080207;85;31244;-72
2022/03/17 04:34:01;;;;;;;154.18;86.80;;;;;;;1.89;70.70;101700.02;2080193;85;33436;-79
2022/03/17 04:37:04;;;;;;;163.15;90.17;;;;;;;1.87;70.87;101708.36;2076692;85;29810;-73
2022/03/17 04:40:07;;;;;;;147.93;84.72;;;;;;;1.85;70.73;101700.84;2064369;86;27666;-73
2022/03/17 04:43:09;;;;;;;161.43;91.72;;;;;;;1.84;70.78;101704.36;2064528;85;29528;-72
2022/03/17 04:46:11;;;;;;;150.87;88.12;;;;;;;1.81;70.68;101697.30;2064554;85;31893;-73
2022/03/17 04:49:14;;;;;;;155.05;90.10;;;;;;;1.79;70.58;101704.77;2064399;85;33652;-73
2022/03/17 04:55:36;;;;;;;155.40;89.07;;;;;;;1.79;70.48;101720.63;2064559;85;27708;-72
2022/03/17 04:58:41;;;;;;;141.65;85.53;;;;;;;1.77;70.38;101732.48;2064336;85;30027;-74
2022/03/17 05:01:44;;;;;;;151.47;88.40;;;;;;;1.76;70.29;101740.41;2064548;85;31068;-77
2022/03/17 05:04:47;;;;;;;164.15;89.60;;;;;;;1.72;70.23;101744.78;2062406;86;33020;-75
2022/03/17 05:07:50;;;;;;;151.68;88.62;;;;;;;1.69;70.53;101750.44;2064757;85;29334;-77
2022/03/17 05:10:53;;;;;;;163.03;88.22;;;;;;;1.68;70.56;101748.25;2064702;85;27611;-73
2022/03/17 05:13:55;;;;;;;145.70;85.95;;;;;;;1.68;70.87;101753.53;2064603;86;28158;-73
2022/03/17 05:16:57;;;;;;;153.75;85.95;;;;;;;1.67;70.64;101762.33;2064331;85;31485;-75
2022/03/17 05:20:00;;;;;;;148.00;88.12;;;;;;;1.71;70.67;101772.48;2064246;85;33812;-63
2022/03/17 05:23:05;;;;;;;153.42;87.97;;;;;;;1.76;70.57;101778.27;2064600;86;29323;-76
2022/03/17 05:26:07;;;;;;;154.80;88.07;;;;;;;1.81;70.51;101781.85;2064902;85;28085;-75
2022/03/17 05:29:11;;;;;;;144.43;83.35;;;;;;;1.86;70.50;101780.57;2052754;85;29626;-74
2022/03/17 05:32:13;;;;;;;149.97;86.17;;;;;;;1.92;70.48;101787.25;2029932;84;31080;-71
2022/03/17 05:35:17;;;;;;;149.72;88.12;;;;;;;1.99;70.42;101792.62;2062304;85;33832;-71
2022/03/17 05:38:19;;;;;;;152.05;86.42;;;;;;;2.05;70.41;101796.63;2064441;85;29488;-70
2022/03/17 05:41:22;;;;;;;150.15;87.82;;;;;;;2.14;70.45;101799.37;2064786;85;27730;-74
2022/03/17 05:44:24;;;;;;;149.75;87.65;;;;;;;2.24;70.46;101798.99;2064530;85;29515;-76
2022/03/17 05:47:41;;;;;;;154.90;86.15;;;;;;;2.36;70.46;101794.26;2064233;86;32293;-66
2022/03/17 05:50:45;;;;;;;146.60;83.80;;;;;;;2.51;70.43;101794.83;2064629;85;33024;-70
2022/03/17 05:53:46;;;;;;;137.75;83.22;;;;;;;2.65;70.30;101805.08;2064506;86;29335;-76
2022/03/17 05:56:48;;;;;;;147.55;84.42;;;;;;;2.83;70.29;101809.61;2064432;85;27695;-70
2022/03/17 05:59:51;;;;;;;138.85;80.20;;;;;;;2.99;70.12;101811.93;2064767;85;29137;-71
2022/03/17 06:02:53;;;;;;;145.40;81.80;;;;;;;3.17;69.88;101812.92;2062601;85;31751;-74
2022/03/17 06:05:57;;;;;;;135.88;79.72;;;;;;;3.36;69.78;101813.89;2064646;85;34105;-76
2022/03/17 06:08:59;;;;;;;136.55;78.50;;;;;;;3.56;69.52;101815.30;2064654;85;29338;-78
2022/03/17 06:12:04;;;;;;;133.37;76.65;;;;;;;3.78;69.23;101818.94;2064551;86;27716;-77
2022/03/17 06:15:08;;;;;;;128.23;77.62;;;;;;;4.01;69.12;101817.22;2064809;86;29639;-74
2022/03/17 06:18:10;;;;;;;127.12;75.60;;;;;;;4.25;68.78;101826.98;2064935;85;31176;-74
2022/03/17 06:21:12;;;;;;;129.78;75.57;;;;;;;4.56;68.74;101820.37;2065281;86;33598;-68
2022/03/17 06:24:14;;;;;;;119.77;76.07;;;;;;;4.88;67.86;101834.52;2065016;86;30568;-76
2022/03/17 06:27:16;;;;;;;123.22;72.60;;;;;;;5.19;67.81;101830.48;2064702;86;27704;-76
2022/03/17 06:30:22;;;;;;;126.35;76.28;;;;;;;5.53;67.49;101833.03;2064540;86;29922;-77
2022/03/17 06:33:31;;;;;;;122.70;76.05;;;;;;;5.84;67.41;101836.87;2063357;85;31011;-60
2022/03/17 06:36:33;;;;;;;129.90;76.30;;;;;;;6.15;67.02;101842.05;2064991;85;34040;-62
2022/03/17 06:39:36;;;;;;;121.30;72.30;;;;;;;6.48;66.54;101834.27;2065235;85;28969;-59
2022/03/17 06:42:38;;;;;;;120.72;76.30;;;;;;;6.77;65.87;101841.58;2036108;85;27702;-60
2022/03/17 06:45:41;;;;;;;123.53;75.60;;;;;;;7.04;65.61;101850.20;2048692;86;29935;-62
2022/03/17 06:48:43;;;;;;;117.05;72.30;;;;;;;7.29;65.37;101842.41;2064670;86;31888;-63
2022/03/17 06:51:46;;;;;;;124.20;74.40;;;;;;;7.56;64.85;101841.64;2064444;86;33895;-66
2022/03/17 06:54:50;;;;;;;119.97;72.97;;;;;;;7.83;64.48;101835.54;2064511;84;30602;-69
2022/03/17 06:57:53;;;;;;;121.87;70.45;;;;;;;8.08;63.54;101836.52;2064859;85;28184;-71
2022/03/17 07:00:56;;;;;;;113.20;70.92;;;;;;;8.18;62.70;101838.60;2064552;86;28861;-63
2022/03/17 07:04:00;;;;;;;114.72;70.20;;;;;;;8.31;62.58;101829.97;2054842;86;31849;-63
2022/03/17 07:07:05;;;;;;;116.22;72.92;;;;;;;8.53;63.03;101835.88;2044651;86;32997;-61
2022/03/17 07:10:11;;;;;;;110.78;68.85;;;;;;;8.65;62.13;101832.12;2027671;87;29334;-60
2022/03/17 07:13:15;;;;;;;104.50;67.87;;;;;;;8.68;61.65;101828.07;2027504;87;28347;-65
2022/03/17 07:16:18;;;;;;;116.77;71.60;;;;;;;8.78;61.24;101835.44;2028708;86;29439;-76
2022/03/17 07:19:22;;;;;;;119.62;72.62;;;;;;;8.86;61.18;101836.64;2064754;86;30907;-71
2022/03/17 07:22:31;;;;;;;114.55;71.70;;;;;;;8.90;60.29;101835.25;2064324;86;34305;-61
2022/03/17 07:25:37;;;;;;;121.90;74.05;;;;;;;8.94;60.41;101833.40;2064438;86;29343;-60
2022/03/17 07:28:40;;;;;;;112.62;70.90;;;;;;;8.97;59.29;101833.34;2064685;85;28118;-61
2022/03/17 07:31:43;;;;;;;122.78;72.62;;;;;;;8.95;58.72;101833.83;2064533;85;28664;-60
2022/03/17 07:34:47;;;;;;;125.38;73.72;;;;;;;8.95;58.71;101842.71;2066612;84;31024;-60
2022/03/17 07:37:50;;;;;;;117.42;73.25;;;;;;;9.05;58.92;101836.75;2068013;86;33026;-59
2022/03/17 07:40:53;;;;;;;108.57;70.30;;;;;;;9.19;58.87;101832.92;2077895;85;31576;-60
2022/03/17 07:43:56;;;;;;;118.77;73.45;;;;;;;9.29;57.58;101830.52;2093201;85;27741;-60
2022/03/17 07:47:04;;;;;;;118.57;72.53;;;;;;;9.33;57.54;101836.68;2093372;85;27656;-61
2022/03/17 07:50:08;;;;;;;121.15;72.67;;;;;;;9.39;56.51;101833.42;2079698;85;31038;-60
2022/03/17 07:53:11;;;;;;;93.52;55.00;;;;;;;9.39;56.91;101836.57;2080814;85;33063;-60
2022/03/17 07:56:14;;;;;;;121.17;74.70;;;;;;;9.41;57.10;101845.45;2080371;85;30113;-59
2022/03/17 07:59:17;;;;;;;114.35;72.97;;;;;;;9.54;56.78;101848.73;2080599;85;27703;-61
2022/03/17 08:02:20;;;;;;;119.25;75.45;;;;;;;9.66;56.79;101844.94;2077459;85;29886;-60
2022/03/17 08:05:23;;;;;;;118.13;73.62;;;;;;;9.68;55.88;101848.47;2027850;87;31892;-60
2022/03/17 08:08:26;;;;;;;125.10;75.30;;;;;;;9.78;56.40;101848.69;2027588;87;33845;-60
2022/03/17 08:11:28;;;;;;;121.35;75.75;;;;;;;9.95;55.99;101847.44;2006787;88;30586;-61
2022/03/17 08:14:31;;;;;;;124.00;79.20;;;;;;;10.01;55.33;101858.89;2057207;86;27701;-61
2022/03/17 08:17:34;;;;;;;120.50;78.15;;;;;;;10.08;55.08;101850.73;2043003;87;28901;-60
2022/03/17 08:20:41;;;;;;;128.90;79.75;;;;;;;10.15;55.12;101861.74;2022349;88;31119;-60
2022/03/17 08:23:43;;;;;;;119.97;78.37;;;;;;;10.26;55.25;101857.01;2042841;87;33068;-63
2022/03/17 08:26:47;;;;;;;130.70;79.22;;;;;;;10.44;54.26;101855.72;2027434;87;30506;-60
2022/03/17 08:29:50;;;;;;;114.12;76.00;;;;;;;10.58;55.11;101843.80;2029960;86;27650;-61
2022/03/17 08:32:52;;;;;;;124.07;80.32;;;;;;;10.70;54.00;101845.27;2027966;86;28675;-60
2022/03/17 08:35:54;;;;;;;114.08;74.60;;;;;;;10.62;53.00;101837.42;2027393;87;32270;-61
2022/03/17 08:38:57;;;;;;;116.28;75.47;;;;;;;10.60;53.78;101839.26;2027417;87;33016;-60
2022/03/17 08:41:59;;;;;;;112.88;73.55;;;;;;;10.72;53.57;101844.34;2026868;87;30408;-60
2022/03/17 08:49:18;;;;;;;117.20;75.32;;;;;;;10.80;53.33;101837.44;2036094;87;27624;-60
2022/03/17 08:51:28;;;;;;;106.40;67.87;;;;;;;11.05;53.28;101834.99;2003619;88;31483;-62
2022/03/17 08:54:34;;;;;;;103.58;69.40;;;;;;;11.12;52.06;101837.05;2054063;86;33802;-60
2022/03/17 08:57:36;;;;;;;109.55;69.70;;;;;;;11.13;50.75;101842.83;2054127;86;29494;-60
2022/03/17 09:00:40;;;;;;;105.83;68.25;;;;;;;11.08;51.01;101837.59;2035490;86;27753;-60
2022/03/17 09:03:42;;;;;;;101.15;66.25;;;;;;;11.07;50.87;101841.20;2033676;87;28671;-61
2022/03/17 09:06:45;;;;;;;104.05;67.53;;;;;;;11.12;50.99;101837.48;2033375;87;32428;-60
2022/03/17 09:09:48;;;;;;;97.47;65.37;;;;;;;11.16;51.14;101835.15;2033595;87;33150;-60
2022/03/17 09:13:05;;;;;;;100.53;63.00;;;;;;;11.25;51.05;101836.25;2033655;86;29385;-60
2022/03/17 09:15:57;;;;;;;99.50;67.17;;;;;;;11.37;50.80;101842.61;2033414;87;27744;-65
2022/03/17 09:19:00;;;;;;;101.07;67.00;;;;;;;11.51;49.94;101844.88;2033347;87;30009;-60
2022/03/17 09:22:03;;;;;;;99.60;63.05;;;;;;;11.60;49.53;101846.90;2033642;87;31977;-61
2022/03/17 09:25:07;;;;;;;98.52;64.15;;;;;;;11.64;49.19;101849.92;2033330;87;34188;-60
2022/03/17 09:28:11;;;;;;;100.50;62.00;;;;;;;11.60;48.18;101850.45;2035864;86;29332;-61
2022/03/17 09:31:20;;;;;;;96.12;60.15;;;;;;;11.64;49.02;101849.92;2033685;86;28194;-66
2022/03/17 09:34:23;;;;;;;87.60;58.13;;;;;;;11.77;49.06;101854.00;2034111;87;28665;-61
2022/03/17 09:37:26;;;;;;;89.30;59.35;;;;;;;11.87;47.25;101851.92;2033662;86;31068;-60
2022/03/17 09:40:28;;;;;;;89.72;57.85;;;;;;;11.95;48.42;101849.86;2029438;86;32923;-60
2022/03/17 09:43:31;;;;;;;90.15;58.20;;;;;;;12.08;46.98;101850.41;2027090;87;30314;-62
2022/03/17 09:46:34;;;;;;;95.22;58.80;;;;;;;12.13;47.61;101848.92;2037007;86;27612;-60
2022/03/17 09:49:37;;;;;;;79.60;53.80;;;;;;;12.27;47.88;101852.05;2064177;86;29617;-62
2022/03/17 09:52:41;;;;;;;78.85;51.68;;;;;;;12.39;46.79;101848.09;2064176;86;31247;-64
2022/03/17 09:55:43;;;;;;;73.60;49.65;;;;;;;12.48;46.80;101847.39;2064657;85;32948;-61
2022/03/17 09:58:47;;;;;;;62.33;41.75;;;;;;;12.49;45.68;101841.09;2053403;86;30540;-64
2022/03/17 10:01:50;;;;;;;62.15;43.10;;;;;;;12.49;44.42;101850.50;2048408;86;27723;-60
2022/03/17 10:04:53;;;;;;;62.33;39.88;;;;;;;12.37;43.62;101850.42;2064561;86;28704;-60
2022/03/17 10:07:55;;;;;;;55.50;38.58;;;;;;;12.36;42.85;101846.84;2064535;85;31434;-68
2022/03/17 10:10:59;;;;;;;55.75;38.53;;;;;;;12.40;43.23;101847.16;2064418;85;34240;-62
2022/03/17 10:14:05;;;;;;;55.12;35.60;;;;;;;12.42;41.85;101855.16;2042286;86;29283;-61
2022/03/17 10:17:34;;;;;;;58.02;38.75;;;;;;;12.40;41.62;101850.33;2111153;84;27669;-60
2022/03/17 10:20:36;;;;;;;52.95;37.67;;;;;;;12.38;42.14;101853.05;2111156;84;30113;-60
2022/03/17 10:23:51;;;;;;;62.33;38.13;;;;;;;12.40;41.61;101858.39;2111314;84;31197;-65
2022/03/17 10:26:57;;;;;;;57.17;36.65;;;;;;;12.40;42.05;101852.54;2111383;84;33786;-72
2022/03/17 10:30:06;;;;;;;59.00;37.50;;;;;;;12.49;42.73;101862.12;2083354;84;30551;-66
2022/03/17 10:33:14;;;;;;;59.53;36.93;;;;;;;12.63;41.22;101855.40;2074497;85;27775;-69
2022/03/17 10:36:21;;;;;;;54.83;35.48;;;;;;;12.65;41.60;101852.20;2052079;85;28656;-70
2022/03/17 10:39:28;;;;;;;54.23;34.25;;;;;;;12.80;41.01;101853.02;2074227;85;31109;-70
2022/03/17 10:42:33;;;;;;;58.05;37.48;;;;;;;12.82;40.37;101850.30;2056894;85;33808;-71
2022/03/17 10:45:36;;;;;;;54.55;35.90;;;;;;;12.84;39.84;101849.31;2118531;83;30526;-69
2022/03/17 10:49:01;;;;;;;52.78;34.73;;;;;;;12.81;39.09;101845.85;2132073;83;28204;-62
2022/03/17 10:52:05;;;;;;;;;;;;;;;12.79;40.01;101843.67;2134433;83;28744;-70
2022/03/17 10:55:12;;;;;;;44.08;29.87;;;;;;;12.85;40.52;101845.69;2132236;83;31204;-61
2022/03/17 10:58:19;;;;;;;46.05;29.65;;;;;;;12.84;38.39;101832.27;2130284;83;33111;-66
2022/03/17 11:01:45;;;;;;;40.55;28.05;;;;;;;12.90;39.51;101839.69;2113661;83;29521;-69
2022/03/17 11:04:47;;;;;;;47.35;29.63;;;;;;;12.95;38.68;101841.32;2101821;84;28816;-66
2022/03/17 11:07:53;;;;;;;40.48;25.43;;;;;;;13.03;38.75;101847.33;2102048;84;29431;-67
2022/03/17 11:10:54;;;;;;;;;;;;;;;13.07;37.13;101842.27;2104626;84;31096;-75
2022/03/17 11:13:59;;;;;;;25.85;18.50;;;;;;;13.13;37.09;101841.16;2101801;84;34186;-76
2022/03/17 11:17:03;;;;;;;27.87;17.52;;;;;;;13.10;36.26;101843.47;2101447;84;30150;-70
2022/03/17 11:20:09;;;;;;;23.42;17.67;;;;;;;13.03;34.05;101847.33;2086486;84;27742;-65
2022/03/17 11:23:24;;;;;;;29.35;18.98;;;;;;;12.99;34.29;101845.67;2102092;84;29658;-71
2022/03/17 11:26:35;;;;;;;27.98;19.32;;;;;;;13.05;34.64;101837.39;2101853;84;31739;-60
2022/03/17 11:29:41;;;;;;;31.27;19.98;;;;;;;13.02;33.72;101843.73;2101834;84;32942;-60
2022/03/17 11:32:55;;;;;;;27.37;19.37;;;;;;;13.03;33.77;101841.95;2085413;84;30381;-60
2022/03/17 11:36:12;;;;;;;36.30;22.60;;;;;;;13.09;34.21;101840.84;2102146;84;27697;-71
2022/03/17 11:39:18;;;;;;;36.35;24.85;;;;;;;13.09;34.22;101836.81;2102029;83;28650;-75
2022/03/17 11:42:44;;;;;;;36.65;23.60;;;;;;;13.12;33.61;101834.02;2102013;84;31961;-77
2022/03/17 11:45:46;;;;;;;34.92;20.65;;;;;;;13.19;32.96;101829.70;2032138;87;33433;-72
2022/03/17 11:48:56;;;;;;;32.90;21.12;;;;;;;13.23;33.42;101830.47;2042036;87;30267;-61
2022/03/17 11:52:02;;;;;;;36.30;23.55;;;;;;;13.29;33.46;101836.09;2042022;87;27777;-62
2022/03/17 11:55:39;;;;;;;33.13;20.92;;;;;;;13.22;33.02;101840.37;2042213;87;28652;-64
2022/03/17 11:58:46;;;;;;;28.23;19.60;;;;;;;13.22;33.64;101836.33;1989269;89;32415;-74
2022/03/17 12:01:48;;;;;;;30.80;21.27;;;;;;;13.24;33.18;101833.57;1990785;89;33545;-63
2022/03/17 12:04:51;;;;;;;32.10;20.40;;;;;;;13.28;32.23;101833.87;2002729;88;29377;-74
2022/03/17 12:08:00;;;;;;;30.15;20.05;;;;;;;13.26;31.89;101832.16;2017871;88;27761;-78
2022/03/17 12:11:16;;;;;;;28.57;19.15;;;;;;;13.31;32.26;101830.19;2017650;88;29927;-65
2022/03/17 12:14:24;;;;;;;28.87;18.82;;;;;;;13.33;32.36;101839.09;2017809;88;31044;-62
2022/03/17 12:17:28;;;;;;;26.33;18.00;;;;;;;13.38;32.02;101843.36;2017908;88;32971;-75
2022/03/17 12:20:36;;;;;;;29.50;19.30;;;;;;;13.40;32.20;101839.73;2018254;88;29965;-79
2022/03/17 12:23:47;;;;;;;27.20;16.15;;;;;;;13.37;31.68;101842.09;2063713;85;27752;-70
2022/03/17 12:26:49;;;;;;;32.53;18.57;;;;;;;13.41;31.73;101830.77;2072259;85;29695;-70
2022/03/17 12:30:08;;;;;;;30.68;19.40;;;;;;;13.51;32.42;101826.78;2112738;83;31715;-62
2022/03/17 12:33:13;;;;;;;28.90;18.32;;;;;;;13.46;30.46;101826.95;2115258;83;34198;-62
2022/03/17 12:36:17;;;;;;;31.73;22.37;;;;;;;13.45;31.67;101832.41;2126071;83;29485;-61
2022/03/17 12:39:29;;;;;;;30.08;20.52;;;;;;;13.44;32.21;101829.31;2082947;85;27651;-61
2022/03/17 12:42:41;;;;;;;33.73;21.62;;;;;;;13.45;32.03;101827.89;2081892;85;29438;-63
2022/03/17 12:45:47;;;;;;;37.42;24.85;;;;;;;13.40;31.80;101831.66;2097365;83;31862;-61
2022/03/17 12:48:49;;;;;;;37.65;24.45;;;;;;;13.32;32.46;101826.56;2131757;83;33769;-68
2022/03/17 12:51:52;;;;;;;45.00;29.30;;;;;;;13.19;32.49;101828.36;2131422;83;30512;-61
2022/03/17 12:54:58;;;;;;;36.42;24.25;;;;;;;13.12;33.09;101825.95;2131604;83;27686;-63
2022/03/17 12:58:04;;;;;;;37.55;24.65;;;;;;;13.10;32.93;101825.98;2102309;83;28651;-76
2022/03/17 13:01:07;;;;;;;37.20;23.90;;;;;;;13.03;32.27;101826.67;2097835;83;33094;-71
2022/03/17 13:04:09;;;;;;;36.70;23.80;;;;;;;12.98;33.03;101817.01;2131319;83;33979;-71
2022/03/17 13:07:14;;;;;;;45.03;25.55;;;;;;;12.95;32.92;101817.11;2131709;83;30026;-71
2022/03/17 13:10:18;;;;;;;48.45;28.30;;;;;;;12.93;33.09;101821.21;2132374;83;27686;-74
2022/03/17 13:16:46;;;;;;;38.28;24.70;;;;;;;12.90;33.74;101819.97;2089584;85;32138;-64
2022/03/17 13:19:50;;;;;;;39.65;24.95;;;;;;;12.95;33.28;101808.59;2070914;86;33702;-62
2022/03/17 13:23:06;;;;;;;38.90;24.98;;;;;;;12.85;32.99;101813.41;2053210;86;29328;-60
2022/03/17 13:26:08;;;;;;;40.08;25.15;;;;;;;12.83;33.32;101810.34;2053191;86;27674;-64
2022/03/17 13:29:13;;;;;;;38.45;24.35;;;;;;;12.80;33.65;101800.58;2052905;85;28638;-73
2022/03/17 13:32:21;;;;;;;;;;;;;;;12.79;33.16;101792.09;2055556;83;31256;-64
2022/03/17 13:35:23;;;;;;;39.40;25.05;;;;;;;12.72;33.55;101795.47;2044663;85;34170;-75
2022/03/17 13:38:34;;;;;;;41.05;25.72;;;;;;;12.68;33.51;101799.67;2032245;87;30235;-79
2022/03/17 13:41:37;;;;;;;35.33;22.50;;;;;;;12.63;33.50;101799.83;2033440;87;27653;-78
2022/03/17 13:44:55;;;;;;;33.48;21.95;;;;;;;12.68;33.86;101802.36;2033227;87;28826;-73
2022/03/17 13:48:07;;;;;;;35.65;21.40;;;;;;;12.68;33.36;101795.64;2070578;86;31648;-73
2022/03/17 13:51:10;;;;;;;28.95;19.67;;;;;;;12.66;33.48;101795.67;2071063;85;33078;-70
2022/03/17 13:54:14;;;;;;;33.58;20.57;;;;;;;12.64;32.71;101796.22;2065059;85;29328;-68
2022/03/17 13:57:18;;;;;;;26.43;19.13;;;;;;;12.61;32.81;101788.25;2033883;87;27701;-60
2022/03/17 14:00:24;;;;;;;32.65;20.00;;;;;;;12.56;33.04;101791.55;2035578;86;28647;-62
2022/03/17 14:03:32;;;;;;;32.75;20.02;;;;;;;12.54;33.32;101790.27;2063795;86;31131;-64
2022/03/17 14:06:35;;;;;;;29.45;20.35;;;;;;;12.56;33.29;101784.38;2061964;86;32984;-61
2022/03/17 14:09:38;;;;;;;30.57;20.30;;;;;;;12.55;33.29;101788.00;2063506;86;29543;-63
2022/03/17 14:12:41;;;;;;;34.85;22.07;;;;;;;12.52;33.28;101791.23;2064336;85;27905;-61
2022/03/17 14:15:46;;;;;;;35.48;24.10;;;;;;;12.50;33.80;101794.44;2064760;85;28802;-61
2022/03/17 14:18:51;;;;;;;36.03;22.95;;;;;;;12.53;33.96;101798.38;2064464;85;31227;-62
2022/03/17 14:25:15;;;;;;;35.28;19.77;;;;;;;12.52;34.58;101792.58;2056313;85;30532;-67